sensor_id;sensor_type;location;lat;lon;timestamp;pressure;altitude;pressure_sealevel;temperature;humidity
77603;BME280;66771;52.434;17.056;2023-03-04T00:02:24;100591.73;;;1.43;81.43
77603;BME280;66771;52.434;17.056;2023-03-04T00:04:51;100587.42;;;1.44;81.58
77603;BME280;66771;52.434;17.056;2023-03-04T00:07:18;100583.80;;;1.45;81.46
77603;BME280;66771;52.434;17.056;2023-03-04T00:09:45;100582.05;;;1.45;81.45
77603;BME280;66771;52.434;17.056;2023-03-04T00:12:12;100581.96;;;1.43;81.38
77603;BME280;66771;52.434;17.056;2023-03-04T00:14:39;100584.78;;;1.43;81.31
77603;BME280;66771;52.434;17.056;2023-03-04T00:17:06;100583.48;;;1.45;81.38
77603;BME280;66771;52.434;17.056;2023-03-04T00:19:33;100576.35;;;1.46;81.15
77603;BME280;66771;52.434;17.056;2023-03-04T00:22:02;100576.45;;;1.48;81.20
77603;BME280;66771;52.434;17.056;2023-03-04T00:24:29;100573.09;;;1.47;81.27
77603;BME280;66771;52.434;17.056;2023-03-04T00:26:56;100571.02;;;1.46;81.21
77603;BME280;66771;52.434;17.056;2023-03-04T00:29:23;100565.52;;;1.42;81.32
77603;BME280;66771;52.434;17.056;2023-03-04T00:31:50;100571.81;;;1.44;81.17
77603;BME280;66771;52.434;17.056;2023-03-04T00:34:16;100569.13;;;1.45;81.22
77603;BME280;66771;52.434;17.056;2023-03-04T00:36:43;100560.73;;;1.46;81.18
77603;BME280;66771;52.434;17.056;2023-03-04T00:39:11;100558.34;;;1.48;81.10
77603;BME280;66771;52.434;17.056;2023-03-04T00:41:38;100551.58;;;1.49;81.23
77603;BME280;66771;52.434;17.056;2023-03-04T00:44:05;100551.59;;;1.48;81.14
77603;BME280;66771;52.434;17.056;2023-03-04T00:46:32;100550.26;;;1.47;81.24
77603;BME280;66771;52.434;17.056;2023-03-04T00:48:59;100549.71;;;1.47;81.08
77603;BME280;66771;52.434;17.056;2023-03-04T00:51:26;100544.55;;;1.47;80.99
77603;BME280;66771;52.434;17.056;2023-03-04T00:53:53;100541.80;;;1.50;80.96
77603;BME280;66771;52.434;17.056;2023-03-04T00:56:19;100534.83;;;1.51;80.92
77603;BME280;66771;52.434;17.056;2023-03-04T00:58:46;100532.36;;;1.50;80.81
77603;BME280;66771;52.434;17.056;2023-03-04T01:01:13;100529.25;;;1.48;80.90
77603;BME280;66771;52.434;17.056;2023-03-04T01:03:39;100524.52;;;1.48;80.91
77603;BME280;66771;52.434;17.056;2023-03-04T01:06:08;100522.16;;;1.48;81.01
77603;BME280;66771;52.434;17.056;2023-03-04T01:08:34;100521.72;;;1.51;80.83
77603;BME280;66771;52.434;17.056;2023-03-04T01:11:02;100511.78;;;1.51;81.03
77603;BME280;66771;52.434;17.056;2023-03-04T01:13:29;100505.42;;;1.50;80.88
77603;BME280;66771;52.434;17.056;2023-03-04T01:15:55;100497.33;;;1.49;80.81
77603;BME280;66771;52.434;17.056;2023-03-04T01:18:23;100487.81;;;1.48;80.72
77603;BME280;66771;52.434;17.056;2023-03-04T01:20:50;100485.65;;;1.48;80.72
77603;BME280;66771;52.434;17.056;2023-03-04T01:23:17;100476.90;;;1.50;80.59
77603;BME280;66771;52.434;17.056;2023-03-04T01:25:44;100470.30;;;1.51;80.60
77603;BME280;66771;52.434;17.056;2023-03-04T01:28:11;100465.00;;;1.50;80.75
77603;BME280;66771;52.434;17.056;2023-03-04T01:30:37;100458.30;;;1.49;80.48
77603;BME280;66771;52.434;17.056;2023-03-04T01:33:04;100455.11;;;1.49;80.30
77603;BME280;66771;52.434;17.056;2023-03-04T01:35:31;100444.90;;;1.51;80.35
77603;BME280;66771;52.434;17.056;2023-03-04T01:37:59;100442.35;;;1.53;80.30
77603;BME280;66771;52.434;17.056;2023-03-04T01:40:25;100435.26;;;1.53;80.19
77603;BME280;66771;52.434;17.056;2023-03-04T01:42:52;100424.69;;;1.51;80.35
77603;BME280;66771;52.434;17.056;2023-03-04T01:45:19;100413.34;;;1.47;80.17
77603;BME280;66771;52.434;17.056;2023-03-04T01:47:48;100416.62;;;1.49;80.15
77603;BME280;66771;52.434;17.056;2023-03-04T01:50:28;100417.34;;;1.49;80.13
77603;BME280;66771;52.434;17.056;2023-03-04T01:52:56;100409.71;;;1.50;80.12
77603;BME280;66771;52.434;17.056;2023-03-04T01:55:23;100399.48;;;1.48;80.02
77603;BME280;66771;52.434;17.056;2023-03-04T01:57:51;100394.94;;;1.47;79.96
77603;BME280;66771;52.434;17.056;2023-03-04T02:00:29;100389.13;;;1.46;79.74
77603;BME280;66771;52.434;17.056;2023-03-04T02:03:04;100383.32;;;1.45;79.82
77603;BME280;66771;52.434;17.056;2023-03-04T02:05:44;100384.35;;;1.45;79.91
77603;BME280;66771;52.434;17.056;2023-03-04T02:08:23;100375.44;;;1.46;79.58
77603;BME280;66771;52.434;17.056;2023-03-04T02:10:51;100375.44;;;1.46;79.56
77603;BME280;66771;52.434;17.056;2023-03-04T02:13:24;100371.73;;;1.46;79.53
77603;BME280;66771;52.434;17.056;2023-03-04T02:16:07;100370.70;;;1.46;79.61
77603;BME280;66771;52.434;17.056;2023-03-04T02:18:45;100364.95;;;1.47;79.38
77603;BME280;66771;52.434;17.056;2023-03-04T02:21:28;100360.60;;;1.49;79.54
77603;BME280;66771;52.434;17.056;2023-03-04T02:24:30;100357.59;;;1.50;79.12
77603;BME280;66771;52.434;17.056;2023-03-04T02:27:26;100352.65;;;1.49;79.23
77603;BME280;66771;52.434;17.056;2023-03-04T02:29:53;100356.33;;;1.50;79.23
77603;BME280;66771;52.434;17.056;2023-03-04T02:32:24;100357.20;;;1.50;79.06
77603;BME280;66771;52.434;17.056;2023-03-04T02:35:17;100357.44;;;1.53;78.94
77603;BME280;66771;52.434;17.056;2023-03-04T02:37:59;100358.85;;;1.53;78.97
77603;BME280;66771;52.434;17.056;2023-03-04T02:40:29;100355.92;;;1.51;79.04
77603;BME280;66771;52.434;17.056;2023-03-04T02:43:12;100353.73;;;1.52;78.94
77603;BME280;66771;52.434;17.056;2023-03-04T02:45:49;100351.56;;;1.53;79.02
77603;BME280;66771;52.434;17.056;2023-03-04T02:48:39;100339.98;;;1.50;78.96
77603;BME280;66771;52.434;17.056;2023-03-04T02:51:07;100348.10;;;1.55;78.76
77603;BME280;66771;52.434;17.056;2023-03-04T02:53:50;100346.84;;;1.55;78.56
77603;BME280;66771;52.434;17.056;2023-03-04T02:56:47;100347.36;;;1.56;78.52
77603;BME280;66771;52.434;17.056;2023-03-04T02:59:18;100346.02;;;1.58;78.74
77603;BME280;66771;52.434;17.056;2023-03-04T03:02:07;100347.21;;;1.59;78.53
77603;BME280;66771;52.434;17.056;2023-03-04T03:05:14;100347.05;;;1.59;78.54
77603;BME280;66771;52.434;17.056;2023-03-04T03:08:04;100349.04;;;1.58;78.45
77603;BME280;66771;52.434;17.056;2023-03-04T03:10:31;100349.02;;;1.58;78.29
77603;BME280;66771;52.434;17.056;2023-03-04T03:13:21;100349.70;;;1.59;78.38
77603;BME280;66771;52.434;17.056;2023-03-04T03:15:52;100350.31;;;1.61;78.12
77603;BME280;66771;52.434;17.056;2023-03-04T03:18:22;100348.89;;;1.61;78.00
77603;BME280;66771;52.434;17.056;2023-03-04T03:21:00;100341.30;;;1.52;78.05
77603;BME280;66771;52.434;17.056;2023-03-04T03:23:28;100343.90;;;1.57;78.07
77603;BME280;66771;52.434;17.056;2023-03-04T03:26:09;100346.30;;;1.59;77.99
77603;BME280;66771;52.434;17.056;2023-03-04T03:28:51;100342.88;;;1.61;77.90
77603;BME280;66771;52.434;17.056;2023-03-04T03:31:23;100334.05;;;1.56;78.18
77603;BME280;66771;52.434;17.056;2023-03-04T03:33:56;100345.76;;;1.60;77.96
77603;BME280;66771;52.434;17.056;2023-03-04T03:36:35;100341.05;;;1.58;77.95
77603;BME280;66771;52.434;17.056;2023-03-04T03:39:02;100344.19;;;1.59;77.98
77603;BME280;66771;52.434;17.056;2023-03-04T03:41:49;100342.52;;;1.61;77.92
77603;BME280;66771;52.434;17.056;2023-03-04T03:44:22;100347.92;;;1.63;77.63
77603;BME280;66771;52.434;17.056;2023-03-04T03:46:56;100342.27;;;1.63;77.39
77603;BME280;66771;52.434;17.056;2023-03-04T03:49:29;100339.27;;;1.62;77.37
77603;BME280;66771;52.434;17.056;2023-03-04T03:52:04;100337.15;;;1.62;77.42
77603;BME280;66771;52.434;17.056;2023-03-04T03:54:34;100335.16;;;1.63;77.48
77603;BME280;66771;52.434;17.056;2023-03-04T03:57:11;100337.02;;;1.65;77.56
77603;BME280;66771;52.434;17.056;2023-03-04T03:59:45;100338.08;;;1.65;77.48
77603;BME280;66771;52.434;17.056;2023-03-04T04:02:17;100346.08;;;1.65;77.47
77603;BME280;66771;52.434;17.056;2023-03-04T04:04:50;100345.40;;;1.64;77.47
77603;BME280;66771;52.434;17.056;2023-03-04T04:07:31;100344.21;;;1.63;77.60
77603;BME280;66771;52.434;17.056;2023-03-04T04:10:05;100344.02;;;1.63;77.39
77603;BME280;66771;52.434;17.056;2023-03-04T04:12:35;100343.06;;;1.65;77.37
77603;BME280;66771;52.434;17.056;2023-03-04T04:15:05;100342.17;;;1.65;77.37
77603;BME280;66771;52.434;17.056;2023-03-04T04:17:38;100347.33;;;1.64;77.55
77603;BME280;66771;52.434;17.056;2023-03-04T04:20:35;100345.95;;;1.64;77.29
77603;BME280;66771;52.434;17.056;2023-03-04T04:23:06;100342.63;;;1.63;77.30
77603;BME280;66771;52.434;17.056;2023-03-04T04:25:43;100327.94;;;1.58;77.23
77603;BME280;66771;52.434;17.056;2023-03-04T04:28:24;100338.84;;;1.64;77.27
77603;BME280;66771;52.434;17.056;2023-03-04T04:30:56;100329.42;;;1.64;77.36
77603;BME280;66771;52.434;17.056;2023-03-04T04:33:26;100326.83;;;1.63;77.06
77603;BME280;66771;52.434;17.056;2023-03-04T04:35:56;100326.75;;;1.60;77.32
77603;BME280;66771;52.434;17.056;2023-03-04T04:38:28;100323.20;;;1.60;77.21
77603;BME280;66771;52.434;17.056;2023-03-04T04:41:22;100325.86;;;1.61;77.30
77603;BME280;66771;52.434;17.056;2023-03-04T04:44:13;100323.14;;;1.62;77.21
77603;BME280;66771;52.434;17.056;2023-03-04T04:47:04;100327.20;;;1.63;77.15
77603;BME280;66771;52.434;17.056;2023-03-04T04:49:42;100320.67;;;1.62;77.16
77603;BME280;66771;52.434;17.056;2023-03-04T04:52:20;100316.34;;;1.59;77.32
77603;BME280;66771;52.434;17.056;2023-03-04T04:54:48;100308.56;;;1.59;77.12
77603;BME280;66771;52.434;17.056;2023-03-04T04:57:25;100304.58;;;1.61;77.27
77603;BME280;66771;52.434;17.056;2023-03-04T05:00:13;100303.50;;;1.61;77.24
77603;BME280;66771;52.434;17.056;2023-03-04T05:02:47;100298.91;;;1.61;77.21
77603;BME280;66771;52.434;17.056;2023-03-04T05:05:31;100294.00;;;1.59;77.39
77603;BME280;66771;52.434;17.056;2023-03-04T05:08:18;100276.77;;;1.52;77.41
77603;BME280;66771;52.434;17.056;2023-03-04T05:10:49;100285.16;;;1.62;77.40
77603;BME280;66771;52.434;17.056;2023-03-04T05:13:40;100285.25;;;1.65;77.44
77603;BME280;66771;52.434;17.056;2023-03-04T05:16:33;100278.95;;;1.63;77.50
77603;BME280;66771;52.434;17.056;2023-03-04T05:19:21;100283.80;;;1.66;77.44
77603;BME280;66771;52.434;17.056;2023-03-04T05:21:50;100280.30;;;1.64;77.34
77603;BME280;66771;52.434;17.056;2023-03-04T05:25:00;100286.48;;;1.65;77.44
77603;BME280;66771;52.434;17.056;2023-03-04T05:27:33;100277.05;;;1.66;77.55
77603;BME280;66771;52.434;17.056;2023-03-04T05:30:23;100278.09;;;1.66;77.60
77603;BME280;66771;52.434;17.056;2023-03-04T05:32:52;100275.45;;;1.66;77.67
77603;BME280;66771;52.434;17.056;2023-03-04T05:35:22;100279.39;;;1.65;77.57
77603;BME280;66771;52.434;17.056;2023-03-04T05:38:10;100274.77;;;1.65;77.80
77603;BME280;66771;52.434;17.056;2023-03-04T05:40:44;100279.98;;;1.68;77.69
77603;BME280;66771;52.434;17.056;2023-03-04T05:43:15;100280.41;;;1.69;77.75
77603;BME280;66771;52.434;17.056;2023-03-04T05:45:47;100280.57;;;1.70;77.86
77603;BME280;66771;52.434;17.056;2023-03-04T05:48:25;100284.99;;;1.70;77.78
77603;BME280;66771;52.434;17.056;2023-03-04T05:51:16;100285.59;;;1.69;77.87
77603;BME280;66771;52.434;17.056;2023-03-04T05:53:52;100287.63;;;1.71;78.01
77603;BME280;66771;52.434;17.056;2023-03-04T05:56:26;100285.56;;;1.73;77.85
77603;BME280;66771;52.434;17.056;2023-03-04T05:59:23;100281.81;;;1.74;79.85
77603;BME280;66771;52.434;17.056;2023-03-04T06:01:55;100281.12;;;1.74;79.51
77603;BME280;66771;52.434;17.056;2023-03-04T06:04:31;100277.94;;;1.73;78.30
77603;BME280;66771;52.434;17.056;2023-03-04T06:07:27;100270.34;;;1.68;78.16
77603;BME280;66771;52.434;17.056;2023-03-04T06:09:58;100273.46;;;1.74;78.22
77603;BME280;66771;52.434;17.056;2023-03-04T06:12:50;100275.45;;;1.77;78.19
77603;BME280;66771;52.434;17.056;2023-03-04T06:15:20;100275.08;;;1.77;78.26
77603;BME280;66771;52.434;17.056;2023-03-04T06:18:13;100273.00;;;1.76;78.33
77603;BME280;66771;52.434;17.056;2023-03-04T06:20:46;100272.38;;;1.78;78.24
77603;BME280;66771;52.434;17.056;2023-03-04T06:23:29;100276.79;;;1.82;78.25
77603;BME280;66771;52.434;17.056;2023-03-04T06:26:21;100276.78;;;1.87;78.31
77603;BME280;66771;52.434;17.056;2023-03-04T06:29:01;100273.25;;;1.90;78.35
77603;BME280;66771;52.434;17.056;2023-03-04T06:31:31;100272.45;;;1.92;78.33
77603;BME280;66771;52.434;17.056;2023-03-04T06:34:25;100274.52;;;1.93;78.24
77603;BME280;66771;52.434;17.056;2023-03-04T06:37:22;100275.77;;;1.96;78.33
77603;BME280;66771;52.434;17.056;2023-03-04T06:42:52;100267.51;;;2.10;78.19
77603;BME280;66771;52.434;17.056;2023-03-04T06:45:39;100267.86;;;2.17;78.22
77603;BME280;66771;52.434;17.056;2023-03-04T06:48:11;100272.69;;;2.20;78.19
77603;BME280;66771;52.434;17.056;2023-03-04T06:51:08;100269.52;;;2.23;78.09
77603;BME280;66771;52.434;17.056;2023-03-04T06:53:57;100268.57;;;2.24;78.14
77603;BME280;66771;52.434;17.056;2023-03-04T06:56:27;100263.70;;;2.29;78.08
77603;BME280;66771;52.434;17.056;2023-03-04T06:59:04;100259.21;;;2.31;77.95
77603;BME280;66771;52.434;17.056;2023-03-04T07:01:34;100256.40;;;2.34;78.03
77603;BME280;66771;52.434;17.056;2023-03-04T07:04:06;100263.11;;;2.41;78.00
77603;BME280;66771;52.434;17.056;2023-03-04T07:06:51;100269.13;;;2.45;77.92
77603;BME280;66771;52.434;17.056;2023-03-04T07:09:19;100264.84;;;2.46;77.83
77603;BME280;66771;52.434;17.056;2023-03-04T07:11:46;100263.17;;;2.51;77.86
77603;BME280;66771;52.434;17.056;2023-03-04T07:14:13;100263.95;;;2.53;77.81
77603;BME280;66771;52.434;17.056;2023-03-04T07:16:45;100262.73;;;2.56;77.67
77603;BME280;66771;52.434;17.056;2023-03-04T07:19:12;100266.52;;;2.58;77.75
77603;BME280;66771;52.434;17.056;2023-03-04T07:21:42;100268.60;;;2.59;77.64
77603;BME280;66771;52.434;17.056;2023-03-04T07:24:09;100266.87;;;2.59;77.66
77603;BME280;66771;52.434;17.056;2023-03-04T07:26:43;100264.52;;;2.60;77.76
77603;BME280;66771;52.434;17.056;2023-03-04T07:29:12;100266.27;;;2.63;77.80
77603;BME280;66771;52.434;17.056;2023-03-04T07:31:44;100267.81;;;2.64;77.65
77603;BME280;66771;52.434;17.056;2023-03-04T07:34:14;100269.46;;;2.63;77.93
77603;BME280;66771;52.434;17.056;2023-03-04T07:36:50;100270.50;;;2.64;77.81
77603;BME280;66771;52.434;17.056;2023-03-04T07:39:21;100265.80;;;2.66;77.82
77603;BME280;66771;52.434;17.056;2023-03-04T07:41:54;100264.91;;;2.69;77.79
77603;BME280;66771;52.434;17.056;2023-03-04T07:44:21;100256.55;;;2.73;77.90
77603;BME280;66771;52.434;17.056;2023-03-04T07:47:04;100258.63;;;2.74;77.77
77603;BME280;66771;52.434;17.056;2023-03-04T07:49:34;100264.29;;;2.74;78.09
77603;BME280;66771;52.434;17.056;2023-03-04T07:52:05;100264.36;;;2.77;77.92
77603;BME280;66771;52.434;17.056;2023-03-04T07:54:37;100260.33;;;2.79;77.92
77603;BME280;66771;52.434;17.056;2023-03-04T07:57:07;100259.98;;;2.82;77.94
77603;BME280;66771;52.434;17.056;2023-03-04T07:59:37;100257.63;;;2.86;77.87
77603;BME280;66771;52.434;17.056;2023-03-04T08:02:05;100260.30;;;2.90;77.96
77603;BME280;66771;52.434;17.056;2023-03-04T08:04:41;100258.08;;;2.91;77.63
77603;BME280;66771;52.434;17.056;2023-03-04T08:10:14;100252.92;;;2.95;77.70
77603;BME280;66771;52.434;17.056;2023-03-04T08:12:41;100251.88;;;2.98;77.72
77603;BME280;66771;52.434;17.056;2023-03-04T08:15:16;100254.73;;;3.05;77.90
77603;BME280;66771;52.434;17.056;2023-03-04T08:17:46;100253.27;;;3.12;77.72
77603;BME280;66771;52.434;17.056;2023-03-04T08:20:20;100251.23;;;3.17;77.72
77603;BME280;66771;52.434;17.056;2023-03-04T08:22:50;100247.75;;;3.19;77.51
77603;BME280;66771;52.434;17.056;2023-03-04T08:25:28;100249.27;;;3.24;77.71
77603;BME280;66771;52.434;17.056;2023-03-04T08:27:58;100247.71;;;3.30;77.68
77603;BME280;66771;52.434;17.056;2023-03-04T08:30:31;100244.48;;;3.37;77.54
77603;BME280;66771;52.434;17.056;2023-03-04T08:33:04;100245.94;;;3.43;77.45
77603;BME280;66771;52.434;17.056;2023-03-04T08:35:34;100247.91;;;3.46;77.52
77603;BME280;66771;52.434;17.056;2023-03-04T08:38:02;100246.09;;;3.47;77.46
77603;BME280;66771;52.434;17.056;2023-03-04T08:40:34;100245.95;;;3.46;77.30
77603;BME280;66771;52.434;17.056;2023-03-04T08:43:04;100245.05;;;3.43;77.51
77603;BME280;66771;52.434;17.056;2023-03-04T08:45:36;100250.23;;;3.42;77.52
77603;BME280;66771;52.434;17.056;2023-03-04T08:48:06;100243.15;;;3.42;77.75
77603;BME280;66771;52.434;17.056;2023-03-04T08:50:36;100240.48;;;3.41;77.99
77603;BME280;66771;52.434;17.056;2023-03-04T08:53:23;100237.23;;;3.43;78.07
77603;BME280;66771;52.434;17.056;2023-03-04T08:55:56;100232.39;;;3.47;77.86
77603;BME280;66771;52.434;17.056;2023-03-04T08:58:47;100239.02;;;3.49;78.04
77603;BME280;66771;52.434;17.056;2023-03-04T09:01:17;100238.46;;;3.50;78.28
77603;BME280;66771;52.434;17.056;2023-03-04T09:03:48;100237.77;;;3.52;78.31
77603;BME280;66771;52.434;17.056;2023-03-04T09:06:18;100238.88;;;3.55;78.49
77603;BME280;66771;52.434;17.056;2023-03-04T09:08:51;100240.41;;;3.53;78.39
77603;BME280;66771;52.434;17.056;2023-03-04T09:11:23;100241.48;;;3.50;78.72
77603;BME280;66771;52.434;17.056;2023-03-04T09:13:53;100245.21;;;3.50;78.82
77603;BME280;66771;52.434;17.056;2023-03-04T09:16:22;100244.48;;;3.53;79.12
77603;BME280;66771;52.434;17.056;2023-03-04T09:18:49;100246.13;;;3.56;79.35
77603;BME280;66771;52.434;17.056;2023-03-04T09:21:26;100244.66;;;3.53;79.35
77603;BME280;66771;52.434;17.056;2023-03-04T09:24:11;100244.96;;;3.48;79.53
77603;BME280;66771;52.434;17.056;2023-03-04T09:27:00;100241.09;;;3.53;79.87
77603;BME280;66771;52.434;17.056;2023-03-04T09:29:27;100233.09;;;3.66;79.92
77603;BME280;66771;52.434;17.056;2023-03-04T09:31:57;100236.95;;;3.80;79.93
77603;BME280;66771;52.434;17.056;2023-03-04T09:34:28;100231.91;;;3.91;79.86
77603;BME280;66771;52.434;17.056;2023-03-04T09:36:57;100229.02;;;3.97;79.81
77603;BME280;66771;52.434;17.056;2023-03-04T09:42:24;100219.23;;;4.13;79.77
77603;BME280;66771;52.434;17.056;2023-03-04T09:44:54;100224.96;;;4.25;79.73
77603;BME280;66771;52.434;17.056;2023-03-04T09:47:35;100221.42;;;4.37;79.54
77603;BME280;66771;52.434;17.056;2023-03-04T09:50:09;100218.85;;;4.47;79.53
77603;BME280;66771;52.434;17.056;2023-03-04T09:55:53;100218.45;;;4.63;79.00
77603;BME280;66771;52.434;17.056;2023-03-04T09:58:41;100216.66;;;4.87;78.87
77603;BME280;66771;52.434;17.056;2023-03-04T10:01:51;100210.71;;;5.11;78.88
77603;BME280;66771;52.434;17.056;2023-03-04T10:04:35;100209.66;;;5.31;78.65
77603;BME280;66771;52.434;17.056;2023-03-04T10:07:25;100211.52;;;5.41;77.93
77603;BME280;66771;52.434;17.056;2023-03-04T10:09:59;100211.43;;;5.51;77.40
77603;BME280;66771;52.434;17.056;2023-03-04T10:12:38;100202.23;;;5.36;77.31
77603;BME280;66771;52.434;17.056;2023-03-04T10:18:19;100206.92;;;5.38;77.49
77603;BME280;66771;52.434;17.056;2023-03-04T10:21:14;100200.35;;;5.49;77.28
77603;BME280;66771;52.434;17.056;2023-03-04T10:24:18;100193.11;;;5.67;77.55
77603;BME280;66771;52.434;17.056;2023-03-04T10:26:47;100189.98;;;5.77;77.12
77603;BME280;66771;52.434;17.056;2023-03-04T10:29:21;100194.02;;;5.80;76.50
77603;BME280;66771;52.434;17.056;2023-03-04T10:31:50;100188.83;;;5.75;76.11
77603;BME280;66771;52.434;17.056;2023-03-04T10:34:22;100187.39;;;5.75;76.20
77603;BME280;66771;52.434;17.056;2023-03-04T10:37:01;100186.30;;;5.79;76.56
77603;BME280;66771;52.434;17.056;2023-03-04T10:39:31;100189.67;;;5.84;76.29
77603;BME280;66771;52.434;17.056;2023-03-04T10:42:02;100182.88;;;5.74;75.99
77603;BME280;66771;52.434;17.056;2023-03-04T10:44:34;100177.58;;;5.53;75.97
77603;BME280;66771;52.434;17.056;2023-03-04T10:47:01;100176.95;;;5.40;76.62
77603;BME280;66771;52.434;17.056;2023-03-04T10:49:31;100177.08;;;5.36;76.45
77603;BME280;66771;52.434;17.056;2023-03-04T10:52:24;100176.70;;;5.33;76.24
77603;BME280;66771;52.434;17.056;2023-03-04T10:55:13;100162.52;;;5.24;76.76
77603;BME280;66771;52.434;17.056;2023-03-04T10:57:54;100172.30;;;5.33;76.67
77603;BME280;66771;52.434;17.056;2023-03-04T11:00:30;100167.33;;;5.29;76.57
77603;BME280;66771;52.434;17.056;2023-03-04T11:06:06;100170.15;;;4.98;76.90
77603;BME280;66771;52.434;17.056;2023-03-04T11:08:33;100165.22;;;4.92;77.29
77603;BME280;66771;52.434;17.056;2023-03-04T11:11:01;100175.83;;;4.87;77.62
77603;BME280;66771;52.434;17.056;2023-03-04T11:13:35;100168.15;;;4.75;78.08
77603;BME280;66771;52.434;17.056;2023-03-04T11:16:31;100168.36;;;4.67;78.34
77603;BME280;66771;52.434;17.056;2023-03-04T11:19:38;100163.29;;;4.62;78.75
77603;BME280;66771;52.434;17.056;2023-03-04T11:22:31;100157.24;;;4.73;78.49
77603;BME280;66771;52.434;17.056;2023-03-04T11:25:43;100162.59;;;4.85;78.47
77603;BME280;66771;52.434;17.056;2023-03-04T11:28:21;100147.77;;;4.91;78.47
77603;BME280;66771;52.434;17.056;2023-03-04T11:31:14;100163.40;;;5.15;78.20
77603;BME280;66771;52.434;17.056;2023-03-04T11:39:49;100157.15;;;5.07;77.64
77603;BME280;66771;52.434;17.056;2023-03-04T11:42:59;100159.60;;;5.04;77.61
77603;BME280;66771;52.434;17.056;2023-03-04T11:51:55;100154.62;;;4.99;78.11
77603;BME280;66771;52.434;17.056;2023-03-04T11:55:03;100157.41;;;5.17;78.20
77603;BME280;66771;52.434;17.056;2023-03-04T12:00:48;100151.77;;;5.19;78.01
77603;BME280;66771;52.434;17.056;2023-03-04T12:03:26;100150.94;;;5.32;77.97
77603;BME280;66771;52.434;17.056;2023-03-04T12:09:36;100138.63;;;5.40;76.45
77603;BME280;66771;52.434;17.056;2023-03-04T12:12:28;100134.68;;;5.40;76.50
77603;BME280;66771;52.434;17.056;2023-03-04T12:33:31;100136.82;;;6.17;73.14
77603;BME280;66771;52.434;17.056;2023-03-04T12:39:17;100137.89;;;5.90;71.53
77603;BME280;66771;52.434;17.056;2023-03-04T12:42:01;100136.91;;;5.75;70.89
77603;BME280;66771;52.434;17.056;2023-03-04T12:50:41;100141.96;;;5.44;71.97
77603;BME280;66771;52.434;17.056;2023-03-04T12:53:29;100144.10;;;5.41;71.32
77603;BME280;66771;52.434;17.056;2023-03-04T12:59:17;100158.52;;;5.30;72.05
77603;BME280;66771;52.434;17.056;2023-03-04T13:04:59;100189.99;;;4.91;73.00
77603;BME280;66771;52.434;17.056;2023-03-04T13:14:23;100209.94;;;4.59;74.37
77603;BME280;66771;52.434;17.056;2023-03-04T13:17:44;100214.21;;;4.59;74.76
77603;BME280;66771;52.434;17.056;2023-03-04T13:23:29;100213.51;;;4.53;75.58
77603;BME280;66771;52.434;17.056;2023-03-04T13:32:37;100219.48;;;4.25;76.01
77603;BME280;66771;52.434;17.056;2023-03-04T13:38:55;100228.47;;;4.14;76.42
77603;BME280;66771;52.434;17.056;2023-03-04T13:41:45;100225.58;;;4.15;76.56
77603;BME280;66771;52.434;17.056;2023-03-04T13:47:41;100226.09;;;4.11;76.61
77603;BME280;66771;52.434;17.056;2023-03-04T13:50:38;100229.56;;;4.10;76.45
77603;BME280;66771;52.434;17.056;2023-03-04T13:53:42;100219.81;;;4.03;76.40
77603;BME280;66771;52.434;17.056;2023-03-04T13:56:40;100231.88;;;4.07;76.57
77603;BME280;66771;52.434;17.056;2023-03-04T13:59:44;100227.98;;;4.06;76.60
77603;BME280;66771;52.434;17.056;2023-03-04T14:02:17;100237.13;;;3.99;76.34
77603;BME280;66771;52.434;17.056;2023-03-04T14:07:35;100230.24;;;3.82;76.41
77603;BME280;66771;52.434;17.056;2023-03-04T14:10:40;100233.38;;;3.81;76.52
77603;BME280;66771;52.434;17.056;2023-03-04T14:13:13;100230.88;;;3.84;76.67
77603;BME280;66771;52.434;17.056;2023-03-04T14:16:44;100231.48;;;3.86;76.45
77603;BME280;66771;52.434;17.056;2023-03-04T14:18:56;100225.27;;;3.88;76.56
77603;BME280;66771;52.434;17.056;2023-03-04T14:21:35;100228.30;;;3.98;76.53
77603;BME280;66771;52.434;17.056;2023-03-04T14:24:14;100227.23;;;4.04;76.26
77603;BME280;66771;52.434;17.056;2023-03-04T14:27:37;100231.90;;;4.19;76.12
77603;BME280;66771;52.434;17.056;2023-03-04T14:30:27;100230.95;;;4.26;75.76
77603;BME280;66771;52.434;17.056;2023-03-04T14:32:57;100225.23;;;4.29;75.82
77603;BME280;66771;52.434;17.056;2023-03-04T14:35:58;100231.49;;;4.38;75.50
77603;BME280;66771;52.434;17.056;2023-03-04T14:38:38;100233.19;;;4.40;75.44
77603;BME280;66771;52.434;17.056;2023-03-04T14:41:16;100231.73;;;4.37;75.13
77603;BME280;66771;52.434;17.056;2023-03-04T14:44:20;100227.45;;;4.31;74.81
77603;BME280;66771;52.434;17.056;2023-03-04T14:47:11;100235.42;;;4.29;75.06
77603;BME280;66771;52.434;17.056;2023-03-04T14:49:55;100236.30;;;4.29;75.07
77603;BME280;66771;52.434;17.056;2023-03-04T14:57:45;100239.59;;;4.40;74.13
77603;BME280;66771;52.434;17.056;2023-03-04T15:00:38;100239.67;;;4.51;74.13
77603;BME280;66771;52.434;17.056;2023-03-04T15:03:21;100235.31;;;4.64;73.53
77603;BME280;66771;52.434;17.056;2023-03-04T15:05:50;100227.30;;;4.64;73.05
77603;BME280;66771;52.434;17.056;2023-03-04T15:08:23;100228.38;;;4.52;72.80
77603;BME280;66771;52.434;17.056;2023-03-04T15:10:57;100228.39;;;4.43;73.01
77603;BME280;66771;52.434;17.056;2023-03-04T15:14:01;100233.36;;;4.37;72.89
77603;BME280;66771;52.434;17.056;2023-03-04T15:16:52;100235.86;;;4.30;72.84
77603;BME280;66771;52.434;17.056;2023-03-04T15:19:25;100235.47;;;4.19;72.30
77603;BME280;66771;52.434;17.056;2023-03-04T15:22:05;100232.05;;;4.03;72.56
77603;BME280;66771;52.434;17.056;2023-03-04T15:24:35;100228.14;;;3.85;72.54
77603;BME280;66771;52.434;17.056;2023-03-04T15:27:14;100237.27;;;3.68;72.51